Latest Coastal Weather Observations for Arlington Reef

IDQ60701

Issued at 3:45 am EST Wednesday 23 July 2014 (issued every 10 minutes, with the page automatically refreshed every 10 minutes)

About coastal observations | Map of coastal stations | Coastal observations for QLD | Marine services | Other Formats
Station Details ID: 200879 Name: ARLINGTON REEF Lat: -16.72 Lon: 146.11 Height: 0.0 m
Data from the previous 72 hours. | See also: Recent months at Arlington Reef
Date/Time
EST
Temp

°C
Wind Pressure Rain
since 9am
mm
Weather Cloud Vis
km
Sea
Height
m
Swell
Dir
 
Speed
knots
Gust
knots
hPa Trend Height
m
Period
s
Dir
23/03:30am - S 14 16 1015.9 - - - - - - - - -
23/03:00am - S 13 15 1016.2 - - - - - - - - -
23/02:30am - S 13 15 1016.5 - - - - - - - - -
23/02:00am - S 14 16 1016.7 - - - - - - - - -
23/01:30am - S 14 18 1016.9 - - - - - - - - -
23/01:00am - S 14 17 1017.0 - - - - - - - - -
23/12:30am - S 14 18 1017.4 - - - - - - - - -
23/12:00am - S 14 18 1017.3 - - - - - - - - -
 
Date/Time
EST
Temp

°C
Wind Pressure Rain
since 9am
mm
Weather Cloud Vis
km
Sea
Height
m
Swell
Dir
 
Speed
knots
Gust
knots
hPa Trend Height
m
Period
s
Dir
22/11:30pm - S 15 18 1017.5 - - - - - - - - -
22/11:00pm - S 14 17 1017.8 - - - - - - - - -
22/10:30pm - S 16 18 1017.8 - - - - - - - - -
22/10:00pm - S 16 19 1017.8 - - - - - - - - -
22/09:30pm - S 14 17 1017.9 - - - - - - - - -
22/09:00pm - S 14 16 1017.9 - - - - - - - - -
22/08:30pm - S 14 17 1017.8 - - - - - - - - -
22/08:00pm - S 13 16 1017.7 - - - - - - - - -
22/07:30pm - S 13 16 1017.5 - - - - - - - - -
22/07:00pm - S 13 17 1017.1 - - - - - - - - -
22/06:30pm - S 15 17 1016.7 - - - - - - - - -
22/06:00pm - S 16 19 1016.3 - - - - - - - - -
22/05:30pm - S 14 17 1016.2 - - - - - - - - -
22/05:00pm - S 15 18 1015.9 - - - - - - - - -
22/04:30pm - S 15 18 1015.9 - - - - - - - - -
22/04:00pm - S 14 16 1015.9 - - - - - - - - -
22/03:30pm - S 13 16 1015.8 - - - - - - - - -
22/03:00pm - S 13 16 1015.9 - - - - - - - - -
22/02:30pm - SSE 13 16 1016.0 - - - - - - - - -
22/02:00pm - S 13 16 1016.3 - - - - - - - - -
22/01:30pm - S 13 15 1016.6 - - - - - - - - -
22/01:00pm - S 13 16 1017.1 - - - - - - - - -
22/12:30pm - S 14 17 1017.8 - - - - - - - - -
22/12:00pm - S 13 15 1018.4 - - - - - - - - -
22/11:30am - S 12 15 1018.9 - - - - - - - - -
22/11:00am - S 12 14 1019.3 - - - - - - - - -
22/10:30am - S 12 14 1019.5 - - - - - - - - -
22/10:00am - S 12 16 1019.6 - - - - - - - - -
22/09:30am - S 13 15 1019.6 - - - - - - - - -
22/09:00am - S 12 15 1019.6 - - - - - - - - -
22/08:30am - S 12 15 1019.3 - - - - - - - - -
22/08:00am - S 12 15 1019.1 - - - - - - - - -
22/07:30am - S 11 14 1018.9 - - - - - - - - -
22/07:00am - SSE 10 14 1018.7 - - - - - - - - -
22/06:30am - SSE 11 13 1018.3 - - - - - - - - -
22/06:00am - SSE 11 15 1018.1 - - - - - - - - -
22/05:30am - SSE 12 15 1018.0 - - - - - - - - -
22/05:00am - SE 13 17 1017.9 - - - - - - - - -
22/04:30am - SSE 13 16 1017.9 - - - - - - - - -
22/04:00am - SSE 13 16 1017.9 - - - - - - - - -
22/03:30am - SE 13 17 1017.9 - - - - - - - - -
22/03:00am - SE 11 14 1018.0 - - - - - - - - -
22/02:30am - SE 10 14 1018.3 - - - - - - - - -
22/02:00am - SE 11 15 1018.6 - - - - - - - - -
22/01:30am - SSE 12 17 1018.7 - - - - - - - - -
22/01:00am - SSE 12 14 1018.9 - - - - - - - - -
22/12:30am - S 9 13 1019.1 - - - - - - - - -
22/12:00am - S 12 15 1019.2 - - - - - - - - -
 
Date/Time
EST
Temp

°C
Wind Pressure Rain
since 9am
mm
Weather Cloud Vis
km
Sea
Height
m
Swell
Dir
 
Speed
knots
Gust
knots
hPa Trend Height
m
Period
s
Dir
21/11:30pm - S 13 15 1019.2 - - - - - - - - -
21/11:00pm - S 15 18 1019.5 - - - - - - - - -
21/10:30pm - S 14 17 1019.6 - - - - - - - - -
21/10:00pm - S 14 17 1019.4 - - - - - - - - -
21/09:30pm - S 11 15 1019.5 - - - - - - - - -
21/09:00pm - S 12 16 1019.3 - - - - - - - - -
21/08:30pm - SSE 12 14 1019.2 - - - - - - - - -
21/08:00pm - SSE 13 15 1018.7 - - - - - - - - -
21/07:30pm - SSE 13 16 1018.6 - - - - - - - - -
21/07:00pm - SSE 13 16 1018.3 - - - - - - - - -
21/06:30pm - SSE 13 16 1018.0 - - - - - - - - -
21/06:00pm - SSE 13 17 1017.8 - - - - - - - - -
21/05:30pm - SSE 15 17 1017.5 - - - - - - - - -
21/05:00pm - S 15 19 1017.3 - - - - - - - - -
21/04:30pm - S 15 18 1017.1 - - - - - - - - -
21/04:00pm - S 16 19 1017.2 - - - - - - - - -
21/03:30pm - S 16 19 1017.0 - - - - - - - - -
21/03:00pm - S 17 20 1017.1 - - - - - - - - -
21/02:30pm - S 16 18 1017.3 - - - - - - - - -
21/02:00pm - S 15 19 1017.5 - - - - - - - - -
21/01:30pm - S 17 20 1017.7 - - - - - - - - -
21/01:00pm - S 17 19 1017.9 - - - - - - - - -
21/12:30pm - S 17 21 1018.2 - - - - - - - - -
21/12:00pm - S 17 21 1018.5 - - - - - - - - -
21/11:30am - S 17 21 1018.9 - - - - - - - - -
21/11:00am - S 17 22 1019.2 - - - - - - - - -
21/10:30am - S 18 21 1019.5 - - - - - - - - -
21/10:00am - S 17 20 1019.6 - - - - - - - - -
21/09:30am - S 17 20 1019.6 - - - - - - - - -
21/09:00am - S 17 20 1019.7 - - - - - - - - -
21/08:30am - S 16 19 1019.4 - - - - - - - - -
21/08:00am - S 16 19 1019.1 - - - - - - - - -
21/07:30am - S 16 19 1018.8 - - - - - - - - -
21/07:00am - S 14 17 1018.5 - - - - - - - - -
21/06:30am - S 14 16 1018.3 - - - - - - - - -
21/06:00am - S 15 18 1018.0 - - - - - - - - -
21/05:30am - S 15 18 1017.9 - - - - - - - - -
21/05:00am - S 15 17 1017.5 - - - - - - - - -
21/04:30am - S 15 17 1017.5 - - - - - - - - -
21/04:00am - S 14 17 1017.5 - - - - - - - - -
21/03:30am - S 15 18 1017.4 - - - - - - - - -
21/03:00am - S 15 17 1017.7 - - - - - - - - -
21/02:30am - S 16 19 1017.9 - - - - - - - - -
21/02:00am - S 15 19 1018.1 - - - - - - - - -
21/01:30am - S 16 18 1018.3 - - - - - - - - -
21/01:00am - S 16 19 1018.5 - - - - - - - - -
21/12:30am - S 16 19 1018.9 - - - - - - - - -
21/12:00am - S 16 20 1019.1 - - - - - - - - -
 
Date/Time
EST
Temp

°C
Wind Pressure Rain
since 9am
mm
Weather Cloud Vis
km
Sea
Height
m
Swell
Dir
 
Speed
knots
Gust
knots
hPa Trend Height
m
Period
s
Dir
20/11:30pm - S 15 18 1019.2 - - - - - - - - -
20/11:00pm - S 17 19 1019.4 - - - - - - - - -
20/10:30pm - S 16 20 1019.4 - - - - - - - - -
20/10:00pm - S 16 20 1019.5 - - - - - - - - -
20/09:30pm - S 16 21 1019.4 - - - - - - - - -
20/09:00pm - S 19 21 1019.2 - - - - - - - - -
20/08:30pm - S 18 22 1019.2 - - - - - - - - -
20/08:00pm - S 19 24 1019.0 - - - - - - - - -
20/07:30pm - S 19 22 1018.6 - - - - - - - - -
20/07:00pm - S 17 20 1018.3 - - - - - - - - -
20/06:30pm - S 17 20 1017.9 - - - - - - - - -
20/06:00pm - S 15 18 1017.7 - - - - - - - - -
20/05:30pm - SSE 13 17 1017.5 - - - - - - - - -
20/05:00pm - S 16 20 1017.2 - - - - - - - - -
20/04:30pm - S 16 21 1017.0 - - - - - - - - -
20/04:00pm - S 17 20 1016.9 - - - - - - - - -
20/03:30pm - S 15 18 1016.9 - - - - - - - - -
20/03:00pm - S 17 20 1016.9 - - - - - - - - -
20/02:30pm - S 16 19 1017.0 - - - - - - - - -
20/02:00pm - S 16 19 1017.2 - - - - - - - - -
20/01:30pm - S 13 17 1017.6 - - - - - - - - -
20/01:00pm - S 14 16 1017.9 - - - - - - - - -
20/12:30pm - S 13 16 1018.4 - - - - - - - - -
20/12:00pm - S 15 19 1018.5 - - - - - - - - -
20/11:30am - S 15 19 1019.0 - - - - - - - - -
20/11:00am - S 16 19 1019.3 - - - - - - - - -
20/10:30am - S 15 19 1019.5 - - - - - - - - -
20/10:00am - SSE 13 16 1019.6 - - - - - - - - -
20/09:30am - SE 14 16 1019.7 - - - - - - - - -
20/09:00am - SSE 15 18 1019.6 - - - - - - - - -
20/08:30am - SE 13 16 1019.3 - - - - - - - - -
20/08:00am - SE 14 18 1018.8 - - - - - - - - -
20/07:30am - SE 13 17 1018.7 - - - - - - - - -
20/07:00am - SE 11 16 1018.4 - - - - - - - - -
20/06:30am - SE 12 16 1018.0 - - - - - - - - -
20/06:00am - SE 13 16 1017.7 - - - - - - - - -
20/05:30am - SE 13 18 1017.6 - - - - - - - - -
20/05:00am - SE 14 18 1017.4 - - - - - - - - -
20/04:30am - SE 15 18 1017.7 - - - - - - - - -
20/04:00am - SE 15 19 1018.0 - - - - - - - - -

Other Formats:

Comma delimited format used in spreadsheet applications
http://www.bom.gov.au/fwo/IDQ60701/IDQ60701.94284.axf

JavaScript Object Notation format (JSON) in row-major order
http://www.bom.gov.au/fwo/IDQ60701/IDQ60701.94284.json